Time;durP1;ratioP1;P1;durP2;ratioP2;P2;SDS_P1;SDS_P2;PMS_P1;PMS_P2;Temp;Humidity;BMP_temperature;BMP_pressure;BME280_temperature;BME280_humidity;BME280_pressure;Samples;Min_cycle;Max_cycle;Signal;HPM_P1;HPM_P2
2022/06/19 00:01:45;;;;;;;;;;;18.10;99.90;;;;;;5052694;28;20404;-66
2022/06/19 00:04:13;;;;;;;;;;;18.10;99.90;;;;;;5066424;28;20015;-65
2022/06/19 00:06:40;;;;;;;;;;;18.00;99.90;;;;;;5057866;28;19925;-65
2022/06/19 00:09:07;;;;;;;;;;;18.00;99.90;;;;;;5061952;28;20019;-65
2022/06/19 00:11:34;;;;;;;;;;;17.90;99.90;;;;;;5064277;28;19974;-65
2022/06/19 00:14:01;;;;;;;;;;;17.90;99.90;;;;;;5063164;28;19932;-66
2022/06/19 00:16:28;;;;;;;;;;;17.90;99.90;;;;;;5058782;28;20571;-65
2022/06/19 00:18:54;;;;;;;;;;;17.90;99.90;;;;;;5056556;28;19979;-65
2022/06/19 00:21:22;;;;;;;;;;;17.90;99.90;;;;;;5064228;28;20430;-65
2022/06/19 00:23:49;;;;;;;;;;;17.80;99.90;;;;;;5059917;28;20494;-65
2022/06/19 00:26:15;;;;;;;;;;;17.70;99.90;;;;;;5067485;28;19978;-65
2022/06/19 00:28:44;;;;;;;;;;;17.70;99.90;;;;;;5063498;28;20023;-66
2022/06/19 00:31:11;;;;;;;;;;;17.70;99.90;;;;;;5056593;28;19929;-64
2022/06/19 00:33:38;;;;;;;;;;;17.60;99.90;;;;;;5062312;28;19924;-65
2022/06/19 00:36:05;;;;;;;;;;;17.60;99.90;;;;;;5058613;28;20376;-65
2022/06/19 00:38:34;;;;;;;;;;;17.50;99.90;;;;;;5053431;28;19972;-64
2022/06/19 00:41:01;;;;;;;;;;;17.50;99.90;;;;;;5059777;28;20371;-65
2022/06/19 00:43:28;;;;;;;;;;;17.60;99.90;;;;;;5063429;28;19967;-65
2022/06/19 00:45:59;;;;;;;;;;;18.00;99.90;;;;;;5052670;28;19931;-65
2022/06/19 00:48:29;;;;;;;;;;;18.10;99.90;;;;;;5059294;28;19935;-65
2022/06/19 00:50:59;;;;;;;;;;;17.90;99.90;;;;;;5062227;28;19924;-67
2022/06/19 00:53:30;;;;;;;;;;;17.80;99.90;;;;;;5052827;28;19928;-67
2022/06/19 00:55:58;;;;;;;;;;;18.00;99.90;;;;;;5062884;28;20003;-67
2022/06/19 00:58:26;;;;;;;;;;;18.10;99.90;;;;;;5058595;28;20012;-67
2022/06/19 01:00:55;;;;;;;;;;;17.50;99.90;;;;;;5059035;28;19972;-67
2022/06/19 01:03:24;;;;;;;;;;;17.50;99.90;;;;;;5056906;28;19967;-67
2022/06/19 01:05:50;;;;;;;;;;;17.60;99.90;;;;;;5056075;28;19975;-67
2022/06/19 01:08:17;;;;;;;;;;;17.40;99.90;;;;;;5056527;28;19960;-68
2022/06/19 01:10:45;;;;;;;;;;;17.40;99.90;;;;;;5056580;28;19931;-68
2022/06/19 01:13:15;;;;;;;;;;;17.50;99.90;;;;;;5063087;28;19999;-67
2022/06/19 01:15:42;;;;;;;;;;;17.50;99.90;;;;;;5052133;28;19976;-67
2022/06/19 01:18:10;;;;;;;;;;;17.00;99.90;;;;;;5057035;28;19932;-68
2022/06/19 01:20:38;;;;;;;;;;;17.10;99.90;;;;;;5066654;28;19925;-68
2022/06/19 01:23:08;;;;;;;;;;;17.30;99.90;;;;;;5065958;28;20007;-68
2022/06/19 01:25:37;;;;;;;;;;;16.90;99.90;;;;;;5057190;28;19976;-69
2022/06/19 01:30:51;;;;;;;;;;;16.90;99.60;;;;;;5062169;28;19935;-68
2022/06/19 01:33:19;;;;;;;;;;;16.80;98.00;;;;;;5052193;28;20539;-68
2022/06/19 01:35:47;;;;;;;;;;;17.00;96.60;;;;;;5065278;28;20015;-68
2022/06/19 01:38:16;;;;;;;;;;;17.00;95.70;;;;;;5051388;28;19924;-68
2022/06/19 01:40:47;;;;;;;;;;;17.10;94.60;;;;;;5071024;28;19953;-67
2022/06/19 01:43:14;;;;;;;;;;;17.20;94.20;;;;;;5067707;28;19924;-68
2022/06/19 01:45:42;;;;;;;;;;;17.30;93.60;;;;;;5054527;28;19925;-67
2022/06/19 01:48:09;;;;;;;;;;;17.30;93.20;;;;;;5058505;28;19932;-67
2022/06/19 01:50:36;;;;;;;;;;;17.30;93.10;;;;;;5055434;28;19931;-68
2022/06/19 01:53:05;;;;;;;;;;;17.40;93.10;;;;;;5063850;28;20360;-67
2022/06/19 01:55:33;;;;;;;;;;;17.10;93.20;;;;;;5063288;28;19924;-67
2022/06/19 01:58:02;;;;;;;;;;;16.90;94.50;;;;;;5070644;28;19929;-67
2022/06/19 02:00:30;;;;;;;;;;;16.80;95.30;;;;;;5051968;28;19924;-67
2022/06/19 02:03:01;;;;;;;;;;;16.70;95.10;;;;;;5050706;28;20028;-68
2022/06/19 02:05:28;;;;;;;;;;;16.50;94.50;;;;;;5062938;28;20007;-69
2022/06/19 02:07:54;;;;;;;;;;;16.60;94.30;;;;;;5069707;28;20027;-66
2022/06/19 02:10:21;;;;;;;;;;;16.40;94.10;;;;;;5065019;28;19975;-68
2022/06/19 02:12:49;;;;;;;;;;;16.50;94.00;;;;;;5058753;28;19983;-66
2022/06/19 02:15:17;;;;;;;;;;;16.40;93.90;;;;;;5055405;28;19955;-67
2022/06/19 02:17:48;;;;;;;;;;;16.40;94.10;;;;;;5060273;28;19971;-68
2022/06/19 02:20:14;;;;;;;;;;;16.60;93.70;;;;;;5068285;28;20024;-67
2022/06/19 02:22:41;;;;;;;;;;;16.40;92.80;;;;;;5050769;28;19932;-67
2022/06/19 02:25:08;;;;;;;;;;;16.20;93.00;;;;;;5066232;28;20026;-67
2022/06/19 02:27:35;;;;;;;;;;;16.20;93.50;;;;;;5051873;28;20438;-67
2022/06/19 02:30:03;;;;;;;;;;;16.30;93.30;;;;;;5061819;28;20010;-67
2022/06/19 02:32:34;;;;;;;;;;;16.20;93.70;;;;;;5055382;28;19964;-65
2022/06/19 02:35:01;;;;;;;;;;;16.10;94.10;;;;;;5065259;28;19924;-65
2022/06/19 02:37:31;;;;;;;;;;;16.10;94.40;;;;;;5052184;28;19950;-65
2022/06/19 02:40:04;;;;;;;;;;;16.00;94.70;;;;;;5062111;28;20369;-66
2022/06/19 02:42:33;;;;;;;;;;;16.10;94.90;;;;;;5051609;28;19931;-66
2022/06/19 02:45:02;;;;;;;;;;;16.00;95.00;;;;;;5064075;28;19929;-67
2022/06/19 02:47:30;;;;;;;;;;;16.00;95.30;;;;;;5052601;28;19932;-66
2022/06/19 02:49:58;;;;;;;;;;;15.90;95.50;;;;;;5051896;28;20446;-65
2022/06/19 02:52:25;;;;;;;;;;;15.90;95.70;;;;;;5066046;28;20015;-64
2022/06/19 02:54:52;;;;;;;;;;;15.80;96.00;;;;;;5066646;28;20122;-68
2022/06/19 02:57:19;;;;;;;;;;;15.80;95.50;;;;;;5067801;28;20032;-65
2022/06/19 02:59:46;;;;;;;;;;;15.80;95.00;;;;;;5055772;28;19979;-65
2022/06/19 03:02:13;;;;;;;;;;;15.80;95.10;;;;;;5051101;28;20414;-65
2022/06/19 03:04:42;;;;;;;;;;;15.80;95.20;;;;;;5051580;28;19987;-65
2022/06/19 03:07:10;;;;;;;;;;;15.90;95.50;;;;;;5063264;28;19925;-66
2022/06/19 03:09:36;;;;;;;;;;;16.10;94.70;;;;;;5060759;28;19925;-66
2022/06/19 03:12:04;;;;;;;;;;;16.20;92.90;;;;;;5058348;28;19925;-66
2022/06/19 03:14:30;;;;;;;;;;;16.10;92.50;;;;;;5062914;28;19924;-66
2022/06/19 03:16:58;;;;;;;;;;;15.90;92.00;;;;;;5053858;28;20443;-66
2022/06/19 03:19:25;;;;;;;;;;;15.70;91.40;;;;;;5055705;28;20002;-66
2022/06/19 03:21:52;;;;;;;;;;;15.60;91.50;;;;;;5065249;28;19967;-65
2022/06/19 03:24:20;;;;;;;;;;;15.50;90.80;;;;;;5066592;28;19924;-65
2022/06/19 03:26:48;;;;;;;;;;;15.50;90.30;;;;;;5057386;28;20028;-65
2022/06/19 03:29:14;;;;;;;;;;;15.50;90.20;;;;;;5066613;28;20023;-66
2022/06/19 03:31:41;;;;;;;;;;;15.40;88.20;;;;;;5060339;28;19974;-66
2022/06/19 03:34:08;;;;;;;;;;;15.40;85.40;;;;;;5063613;28;20384;-66
2022/06/19 03:36:35;;;;;;;;;;;15.40;81.80;;;;;;5072586;28;20032;-67
2022/06/19 03:39:01;;;;;;;;;;;15.30;77.10;;;;;;5064598;28;19964;-66
2022/06/19 03:41:29;;;;;;;;;;;15.30;76.70;;;;;;5069957;28;20027;-66
2022/06/19 03:43:56;;;;;;;;;;;15.30;76.70;;;;;;5065374;28;20391;-66
2022/06/19 03:46:23;;;;;;;;;;;15.20;76.20;;;;;;5064749;28;19925;-66
2022/06/19 03:48:51;;;;;;;;;;;15.20;76.30;;;;;;5067204;28;20007;-66
2022/06/19 03:51:22;;;;;;;;;;;15.20;76.70;;;;;;5064210;28;19925;-66
2022/06/19 03:53:49;;;;;;;;;;;15.20;76.70;;;;;;5067172;28;20295;-66
2022/06/19 03:56:19;;;;;;;;;;;15.20;74.50;;;;;;5065036;28;19978;-66
2022/06/19 03:58:47;;;;;;;;;;;15.20;74.80;;;;;;5066259;28;20027;-66
2022/06/19 04:01:14;;;;;;;;;;;15.20;74.50;;;;;;5053310;28;19976;-66
2022/06/19 04:03:41;;;;;;;;;;;15.20;74.90;;;;;;5055891;28;19929;-66
2022/06/19 04:06:09;;;;;;;;;;;15.20;76.00;;;;;;5070879;28;19924;-66
2022/06/19 04:08:36;;;;;;;;;;;15.30;76.60;;;;;;5064883;28;19929;-66
2022/06/19 04:11:02;;;;;;;;;;;15.30;76.10;;;;;;5062785;28;20399;-65
2022/06/19 04:13:29;;;;;;;;;;;15.40;72.80;;;;;;5053745;28;20000;-65
2022/06/19 04:16:00;;;;;;;;;;;15.40;70.60;;;;;;5053333;28;20020;-66
2022/06/19 04:18:29;;;;;;;;;;;15.70;68.70;;;;;;5057942;28;19975;-67
2022/06/19 04:20:56;;;;;;;;;;;15.50;66.50;;;;;;5061004;28;19925;-68
2022/06/19 04:23:23;;;;;;;;;;;15.50;63.50;;;;;;5066506;28;19929;-66
2022/06/19 04:25:51;;;;;;;;;;;15.40;62.70;;;;;;5070895;28;20008;-66
2022/06/19 04:28:18;;;;;;;;;;;15.40;62.20;;;;;;5069140;28;19924;-66
2022/06/19 04:30:46;;;;;;;;;;;15.40;62.00;;;;;;5068029;28;19924;-66
2022/06/19 04:33:16;;;;;;;;;;;15.40;61.00;;;;;;5067075;28;19985;-66
2022/06/19 04:35:43;;;;;;;;;;;15.40;61.70;;;;;;5053771;28;19925;-65
2022/06/19 04:38:10;;;;;;;;;;;15.40;60.10;;;;;;5053423;28;19932;-65
2022/06/19 04:40:37;;;;;;;;;;;15.40;59.50;;;;;;5069785;28;20023;-65
2022/06/19 04:43:04;;;;;;;;;;;15.50;59.90;;;;;;5070879;28;20418;-65
2022/06/19 04:45:31;;;;;;;;;;;15.50;60.00;;;;;;5064436;28;20016;-65
2022/06/19 04:47:58;;;;;;;;;;;15.50;59.50;;;;;;5060235;28;20459;-65
2022/06/19 04:50:26;;;;;;;;;;;15.50;59.50;;;;;;5061705;28;20015;-65
2022/06/19 04:52:53;;;;;;;;;;;15.40;60.50;;;;;;5054329;28;19932;-65
2022/06/19 04:55:19;;;;;;;;;;;15.40;63.50;;;;;;5053609;28;19964;-65
2022/06/19 04:57:46;;;;;;;;;;;15.30;62.90;;;;;;5052698;28;19925;-65
2022/06/19 05:00:14;;;;;;;;;;;15.40;63.00;;;;;;5064949;28;19924;-65
2022/06/19 05:02:44;;;;;;;;;;;15.50;62.90;;;;;;5062505;28;19976;-65
2022/06/19 05:05:15;;;;;;;;;;;15.50;62.60;;;;;;5068645;28;19928;-66
2022/06/19 05:07:43;;;;;;;;;;;15.50;62.50;;;;;;5052120;28;19935;-65
2022/06/19 05:10:10;;;;;;;;;;;15.60;63.10;;;;;;5067935;28;20012;-65
2022/06/19 05:12:37;;;;;;;;;;;15.60;63.60;;;;;;5054583;28;20346;-65
2022/06/19 05:15:05;;;;;;;;;;;15.60;63.10;;;;;;5055749;28;19964;-65
2022/06/19 05:17:32;;;;;;;;;;;15.60;63.30;;;;;;5063597;28;20015;-66
2022/06/19 05:19:59;;;;;;;;;;;15.70;61.00;;;;;;5068374;28;19967;-64
2022/06/19 05:22:25;;;;;;;;;;;15.80;61.50;;;;;;5056625;28;19960;-65
2022/06/19 05:24:53;;;;;;;;;;;16.10;68.90;;;;;;5066492;28;19929;-65
2022/06/19 05:27:20;;;;;;;;;;;16.30;74.80;;;;;;5062061;28;20094;-65
2022/06/19 05:29:47;;;;;;;;;;;16.40;80.10;;;;;;5058337;28;19925;-66
2022/06/19 05:32:14;;;;;;;;;;;16.10;85.40;;;;;;5052198;28;20023;-65
2022/06/19 05:34:40;;;;;;;;;;;16.00;91.50;;;;;;5070072;28;19986;-65
2022/06/19 05:37:07;;;;;;;;;;;15.80;91.60;;;;;;5061331;28;19979;-65
2022/06/19 05:39:34;;;;;;;;;;;15.80;93.20;;;;;;5057312;28;19937;-65
2022/06/19 05:42:03;;;;;;;;;;;15.90;91.40;;;;;;5053415;28;20011;-65
2022/06/19 05:44:30;;;;;;;;;;;15.90;91.10;;;;;;5057155;28;20300;-66
2022/06/19 05:46:56;;;;;;;;;;;15.90;92.10;;;;;;5053762;28;19963;-66
2022/06/19 05:49:25;;;;;;;;;;;16.00;92.30;;;;;;5059993;28;20300;-66
2022/06/19 05:51:52;;;;;;;;;;;16.00;91.60;;;;;;5061188;28;20443;-66
2022/06/19 05:54:19;;;;;;;;;;;16.00;91.60;;;;;;5052778;28;19925;-66
2022/06/19 05:56:48;;;;;;;;;;;15.90;92.20;;;;;;5051694;28;19942;-65
2022/06/19 05:59:16;;;;;;;;;;;15.80;91.40;;;;;;5055092;28;20019;-66
2022/06/19 06:01:43;;;;;;;;;;;15.80;92.20;;;;;;5055892;28;19942;-66
2022/06/19 06:04:09;;;;;;;;;;;15.90;91.70;;;;;;5053707;28;19971;-66
2022/06/19 06:06:36;;;;;;;;;;;15.90;91.90;;;;;;5056486;28;19925;-65
2022/06/19 06:09:03;;;;;;;;;;;15.80;93.10;;;;;;5050516;28;20447;-65
2022/06/19 06:11:30;;;;;;;;;;;15.80;93.90;;;;;;5062953;28;20514;-65
2022/06/19 06:13:57;;;;;;;;;;;15.70;95.40;;;;;;5054462;28;20051;-65
2022/06/19 06:16:25;;;;;;;;;;;15.60;95.70;;;;;;5060761;28;19948;-65
2022/06/19 06:18:52;;;;;;;;;;;15.40;96.80;;;;;;5056834;28;19929;-65
2022/06/19 06:21:20;;;;;;;;;;;15.30;98.20;;;;;;5057394;28;19976;-65
2022/06/19 06:23:47;;;;;;;;;;;15.20;99.50;;;;;;5063796;28;19924;-65
2022/06/19 06:26:16;;;;;;;;;;;15.20;99.90;;;;;;5051612;28;20004;-65
2022/06/19 06:28:44;;;;;;;;;;;15.10;99.90;;;;;;5067694;28;19924;-65
2022/06/19 06:31:11;;;;;;;;;;;15.20;99.90;;;;;;5051350;28;19971;-67
2022/06/19 06:33:39;;;;;;;;;;;15.00;99.90;;;;;;5054225;28;19975;-66
2022/06/19 06:36:06;;;;;;;;;;;14.70;99.90;;;;;;5051494;28;19960;-67
2022/06/19 06:38:33;;;;;;;;;;;14.20;99.90;;;;;;5052905;28;19932;-67
2022/06/19 06:40:59;;;;;;;;;;;13.70;99.90;;;;;;5064368;28;19960;-67
2022/06/19 06:43:26;;;;;;;;;;;13.40;99.90;;;;;;5066210;28;20027;-66
2022/06/19 06:45:53;;;;;;;;;;;13.20;99.90;;;;;;5071183;28;20019;-65
2022/06/19 06:48:20;;;;;;;;;;;13.20;99.90;;;;;;5068938;28;20372;-65
2022/06/19 06:50:49;;;;;;;;;;;13.10;99.90;;;;;;5069868;28;19925;-66
2022/06/19 06:53:17;;;;;;;;;;;13.00;99.90;;;;;;5068321;28;20015;-66
2022/06/19 06:55:44;;;;;;;;;;;13.20;99.90;;;;;;5065876;28;19952;-63
2022/06/19 06:58:11;;;;;;;;;;;13.40;99.90;;;;;;5059445;28;20035;-64
2022/06/19 07:00:38;;;;;;;;;;;13.60;99.90;;;;;;5059452;28;20371;-64
2022/06/19 07:03:05;;;;;;;;;;;13.80;99.90;;;;;;5059831;28;19929;-64
2022/06/19 07:05:32;;;;;;;;;;;14.10;99.90;;;;;;5060997;28;19982;-63
2022/06/19 07:08:00;;;;;;;;;;;14.20;99.90;;;;;;5068372;28;20447;-64
2022/06/19 07:10:27;;;;;;;;;;;14.30;99.90;;;;;;5057395;28;20016;-64
2022/06/19 07:12:54;;;;;;;;;;;14.50;99.90;;;;;;5062084;28;19936;-63
2022/06/19 07:15:20;;;;;;;;;;;14.60;99.90;;;;;;5067673;28;19925;-63
2022/06/19 07:17:47;;;;;;;;;;;14.60;99.90;;;;;;5064191;28;20016;-66
2022/06/19 07:20:14;;;;;;;;;;;14.60;99.90;;;;;;5057788;28;20362;-65
2022/06/19 07:22:40;;;;;;;;;;;14.80;99.90;;;;;;5062375;28;19963;-64
2022/06/19 07:25:09;;;;;;;;;;;14.50;99.90;;;;;;5060553;28;19925;-64
2022/06/19 07:27:36;;;;;;;;;;;14.30;99.90;;;;;;5057369;28;20024;-67
2022/06/19 07:30:03;;;;;;;;;;;14.00;99.90;;;;;;5057864;28;19951;-66
2022/06/19 07:32:30;;;;;;;;;;;14.00;99.90;;;;;;5056929;28;20022;-66
2022/06/19 07:34:57;;;;;;;;;;;14.00;99.90;;;;;;5054303;28;19986;-66
2022/06/19 07:37:24;;;;;;;;;;;14.00;99.90;;;;;;5055953;28;20362;-67
2022/06/19 07:39:50;;;;;;;;;;;14.10;99.90;;;;;;5063966;28;19964;-66
2022/06/19 07:42:18;;;;;;;;;;;14.20;99.90;;;;;;5061867;28;19974;-66
2022/06/19 07:44:45;;;;;;;;;;;14.30;99.90;;;;;;5057644;28;19936;-68
2022/06/19 07:50:12;;;;;;;;;;;14.40;99.90;;;;;;5053408;28;19931;-67
2022/06/19 07:52:39;;;;;;;;;;;14.30;99.90;;;;;;5054377;28;19929;-67
2022/06/19 07:55:08;;;;;;;;;;;14.30;99.90;;;;;;5061376;28;20433;-68
2022/06/19 07:57:36;;;;;;;;;;;14.20;99.90;;;;;;5062527;28;20352;-68
2022/06/19 08:00:03;;;;;;;;;;;14.10;99.90;;;;;;5054700;28;20268;-67
2022/06/19 08:02:30;;;;;;;;;;;14.20;99.90;;;;;;5057698;28;19933;-67
2022/06/19 08:04:58;;;;;;;;;;;14.30;99.90;;;;;;5056551;28;20033;-67
2022/06/19 08:07:24;;;;;;;;;;;14.20;99.90;;;;;;5056887;28;20265;-67
2022/06/19 08:09:51;;;;;;;;;;;14.30;99.90;;;;;;5056996;28;19925;-67
2022/06/19 08:12:19;;;;;;;;;;;14.70;99.90;;;;;;5053118;28;20170;-67
2022/06/19 08:14:47;;;;;;;;;;;14.70;99.90;;;;;;5057473;28;20732;-68
2022/06/19 08:17:13;;;;;;;;;;;15.00;99.90;;;;;;5060145;28;20185;-67
2022/06/19 08:19:40;;;;;;;;;;;15.20;99.90;;;;;;5060192;28;19975;-68
2022/06/19 08:22:07;;;;;;;;;;;15.90;99.90;;;;;;5067137;28;20349;-66
2022/06/19 08:24:33;;;;;;;;;;;16.40;99.90;;;;;;5058006;28;19930;-66
2022/06/19 08:27:01;;;;;;;;;;;16.30;99.90;;;;;;5054602;28;20401;-66
2022/06/19 08:29:28;;;;;;;;;;;16.90;99.90;;;;;;5058051;28;19924;-67
2022/06/19 08:31:56;;;;;;;;;;;17.50;99.90;;;;;;5058673;28;19925;-67
2022/06/19 08:34:22;;;;;;;;;;;18.30;99.90;;;;;;5058026;28;19928;-67
2022/06/19 08:36:50;;;;;;;;;;;17.40;99.90;;;;;;5062815;28;19968;-66
2022/06/19 08:39:18;;;;;;;;;;;16.50;99.90;;;;;;5057756;28;19932;-65
2022/06/19 08:41:52;;;;;;;;;;;16.00;99.90;;;;;;5061122;28;19925;-66
2022/06/19 08:44:28;;;;;;;;;;;15.80;99.90;;;;;;5057562;28;20477;-66
2022/06/19 08:47:08;;;;;;;;;;;15.80;99.90;;;;;;5062690;28;20027;-66
2022/06/19 08:49:46;;;;;;;;;;;15.80;99.90;;;;;;5057630;28;20376;-66
2022/06/19 08:52:21;;;;;;;;;;;15.80;99.90;;;;;;5065914;28;19925;-67
2022/06/19 08:54:54;;;;;;;;;;;15.70;99.90;;;;;;5063208;28;19924;-65
2022/06/19 08:57:24;;;;;;;;;;;16.00;99.90;;;;;;5062472;28;19968;-66
2022/06/19 08:59:55;;;;;;;;;;;16.30;99.90;;;;;;5057608;28;20340;-65
2022/06/19 09:02:33;;;;;;;;;;;16.50;99.90;;;;;;5058356;28;20016;-65
2022/06/19 09:07:56;;;;;;;;;;;16.00;99.90;;;;;;5065128;28;19931;-66
2022/06/19 09:10:29;;;;;;;;;;;16.10;99.90;;;;;;5054085;28;20031;-67
2022/06/19 09:13:04;;;;;;;;;;;16.60;99.90;;;;;;5063784;28;20019;-67
2022/06/19 09:15:34;;;;;;;;;;;17.00;99.90;;;;;;5052373;28;19979;-66
2022/06/19 09:18:04;;;;;;;;;;;17.10;99.90;;;;;;5059974;28;20477;-67
2022/06/19 09:20:35;;;;;;;;;;;16.80;99.90;;;;;;5052290;28;19932;-66
2022/06/19 09:23:09;;;;;;;;;;;16.80;99.90;;;;;;5061469;28;20019;-66
2022/06/19 09:25:44;;;;;;;;;;;16.60;99.90;;;;;;5060977;28;19936;-66
2022/06/19 09:28:14;;;;;;;;;;;16.10;99.90;;;;;;5062001;28;19924;-66
2022/06/19 09:30:43;;;;;;;;;;;16.40;99.90;;;;;;5061081;28;20022;-68
2022/06/19 09:33:16;;;;;;;;;;;16.70;99.90;;;;;;5064983;28;19931;-69
2022/06/19 09:35:45;;;;;;;;;;;16.90;99.90;;;;;;5054494;28;20367;-68
2022/06/19 09:38:15;;;;;;;;;;;17.10;99.90;;;;;;5054770;28;19984;-67
2022/06/19 09:40:43;;;;;;;;;;;16.90;99.90;;;;;;5059958;28;19925;-67
2022/06/19 09:43:11;;;;;;;;;;;16.50;99.90;;;;;;5060500;28;19989;-68
2022/06/19 09:45:40;;;;;;;;;;;16.50;99.90;;;;;;5064762;28;20253;-68
2022/06/19 09:48:10;;;;;;;;;;;16.40;99.90;;;;;;5058977;28;20363;-68
2022/06/19 09:50:43;;;;;;;;;;;16.60;99.90;;;;;;5062785;28;20373;-68
2022/06/19 09:53:12;;;;;;;;;;;17.00;99.90;;;;;;5060285;28;19928;-68
2022/06/19 09:55:41;;;;;;;;;;;16.90;99.90;;;;;;5061940;28;19928;-68
2022/06/19 09:58:11;;;;;;;;;;;17.60;99.90;;;;;;5054253;28;20032;-69
2022/06/19 10:00:38;;;;;;;;;;;17.20;99.90;;;;;;5059396;28;19947;-69
2022/06/19 10:03:07;;;;;;;;;;;17.20;99.90;;;;;;5061335;28;20023;-69
2022/06/19 10:05:37;;;;;;;;;;;17.90;99.90;;;;;;5059257;28;20011;-69
2022/06/19 10:08:09;;;;;;;;;;;17.70;99.90;;;;;;5060116;28;19967;-70
2022/06/19 10:10:38;;;;;;;;;;;17.90;99.90;;;;;;5061008;28;20014;-69
2022/06/19 10:13:08;;;;;;;;;;;17.70;99.90;;;;;;5057311;28;20396;-69
2022/06/19 10:15:37;;;;;;;;;;;17.50;99.90;;;;;;5064722;28;19931;-69
2022/06/19 10:18:08;;;;;;;;;;;17.40;99.90;;;;;;5057255;28;20311;-70
2022/06/19 10:20:39;;;;;;;;;;;17.10;99.90;;;;;;5057532;28;19990;-68
2022/06/19 10:23:12;;;;;;;;;;;17.10;99.90;;;;;;5060092;28;20007;-69
2022/06/19 10:25:45;;;;;;;;;;;17.50;99.90;;;;;;5070248;28;19986;-69
2022/06/19 10:28:19;;;;;;;;;;;18.00;99.90;;;;;;5070370;28;19933;-69
2022/06/19 10:30:51;;;;;;;;;;;18.00;99.80;;;;;;5063716;28;20011;-69
2022/06/19 10:33:22;;;;;;;;;;;18.20;99.40;;;;;;5058378;28;19928;-69
2022/06/19 10:35:50;;;;;;;;;;;18.30;99.20;;;;;;5066325;28;19924;-69
2022/06/19 10:38:35;;;;;;;;;;;18.10;99.90;;;;;;5065130;28;20022;-68
2022/06/19 10:41:05;;;;;;;;;;;18.70;99.30;;;;;;5062822;28;19956;-68
2022/06/19 10:43:38;;;;;;;;;;;18.90;97.00;;;;;;5068597;28;19933;-68
2022/06/19 10:46:06;;;;;;;;;;;18.80;96.60;;;;;;5065368;28;19925;-68
2022/06/19 10:48:40;;;;;;;;;;;18.80;97.50;;;;;;5063828;28;19924;-68
2022/06/19 10:51:11;;;;;;;;;;;18.30;96.50;;;;;;5065863;28;19931;-68
2022/06/19 10:53:50;;;;;;;;;;;18.30;97.00;;;;;;5062361;28;20055;-68
2022/06/19 10:56:24;;;;;;;;;;;18.30;96.80;;;;;;5065036;28;19924;-69
2022/06/19 10:58:51;;;;;;;;;;;18.20;97.40;;;;;;5061316;28;19932;-68
2022/06/19 11:04:10;;;;;;;;;;;17.90;98.60;;;;;;5057723;28;20284;-68
2022/06/19 11:06:39;;;;;;;;;;;18.10;97.60;;;;;;5060659;28;19932;-68
2022/06/19 11:09:07;;;;;;;;;;;18.50;98.80;;;;;;5061487;28;19938;-68
2022/06/19 11:11:36;;;;;;;;;;;18.70;97.70;;;;;;5061947;28;19928;-68
2022/06/19 11:14:04;;;;;;;;;;;18.80;97.20;;;;;;5060126;28;20031;-69
2022/06/19 11:16:32;;;;;;;;;;;18.70;96.80;;;;;;5060185;28;20023;-68
2022/06/19 11:18:59;;;;;;;;;;;19.00;96.80;;;;;;5058919;28;20331;-68
2022/06/19 11:21:28;;;;;;;;;;;18.90;97.20;;;;;;5058357;28;20004;-69
2022/06/19 11:23:56;;;;;;;;;;;18.80;96.90;;;;;;5060809;28;19938;-68
2022/06/19 11:26:26;;;;;;;;;;;18.60;97.30;;;;;;5054421;28;19946;-68
2022/06/19 11:28:56;;;;;;;;;;;18.80;96.70;;;;;;5057709;28;19933;-68
2022/06/19 11:31:25;;;;;;;;;;;19.20;97.20;;;;;;5052452;28;19997;-68
2022/06/19 11:33:53;;;;;;;;;;;19.60;95.00;;;;;;5056430;28;19924;-68
2022/06/19 11:36:29;;;;;;;;;;;19.90;93.90;;;;;;5056279;28;20065;-67
2022/06/19 11:38:56;;;;;;;;;;;19.90;93.40;;;;;;5054924;28;19971;-68
2022/06/19 11:41:31;;;;;;;;;;;19.90;93.20;;;;;;5061169;28;19959;-69
2022/06/19 11:44:05;;;;;;;;;;;19.40;93.50;;;;;;5055280;28;19924;-69
2022/06/19 11:46:32;;;;;;;;;;;18.90;94.70;;;;;;5064902;28;20372;-68
2022/06/19 11:49:13;;;;;;;;;;;19.30;94.90;;;;;;5064472;28;19925;-69
2022/06/19 11:51:40;;;;;;;;;;;20.00;94.10;;;;;;5057610;28;20035;-69
2022/06/19 11:54:12;;;;;;;;;;;20.60;92.40;;;;;;5066993;28;20566;-69
2022/06/19 11:56:39;;;;;;;;;;;21.10;91.80;;;;;;5063799;28;19939;-69
2022/06/19 11:59:25;;;;;;;;;;;21.60;89.20;;;;;;5061597;28;19928;-68
2022/06/19 12:01:51;;;;;;;;;;;21.50;86.00;;;;;;5060988;28;20030;-68
2022/06/19 12:04:27;;;;;;;;;;;21.40;86.10;;;;;;5067549;28;19939;-69
2022/06/19 12:06:55;;;;;;;;;;;20.80;84.70;;;;;;5055699;28;20004;-68
2022/06/19 12:09:29;;;;;;;;;;;20.30;89.50;;;;;;5064929;28;20022;-68
2022/06/19 12:11:59;;;;;;;;;;;19.60;92.60;;;;;;5064080;28;20011;-68
2022/06/19 12:14:30;;;;;;;;;;;19.70;93.80;;;;;;5066109;28;19928;-68
2022/06/19 12:17:07;;;;;;;;;;;19.80;94.40;;;;;;5055609;28;20371;-68
2022/06/19 12:19:34;;;;;;;;;;;19.70;95.20;;;;;;5057757;28;19933;-69
2022/06/19 12:22:02;;;;;;;;;;;19.20;96.80;;;;;;5056158;28;19925;-69
2022/06/19 12:24:34;;;;;;;;;;;18.80;98.60;;;;;;5058651;28;20456;-68
2022/06/19 12:27:02;;;;;;;;;;;18.60;99.90;;;;;;5051190;28;19981;-68
2022/06/19 12:29:34;;;;;;;;;;;18.60;99.90;;;;;;5051899;28;19933;-67
2022/06/19 12:32:06;;;;;;;;;;;18.70;99.90;;;;;;5054573;28;20368;-68
2022/06/19 12:34:35;;;;;;;;;;;19.20;99.90;;;;;;5058645;28;19924;-68
2022/06/19 12:37:02;;;;;;;;;;;19.50;99.90;;;;;;5062030;28;19964;-67
2022/06/19 12:39:31;;;;;;;;;;;19.70;99.90;;;;;;5068979;28;19930;-68
2022/06/19 12:42:01;;;;;;;;;;;19.80;99.90;;;;;;5065587;28;20314;-68
2022/06/19 12:44:35;;;;;;;;;;;19.60;99.90;;;;;;5064852;28;20157;-67
2022/06/19 12:47:10;;;;;;;;;;;19.20;99.90;;;;;;5061031;28;20011;-69
2022/06/19 12:49:44;;;;;;;;;;;19.10;99.90;;;;;;5064738;28;20015;-67
2022/06/19 12:52:15;;;;;;;;;;;19.10;99.90;;;;;;5059485;28;19924;-67
2022/06/19 12:54:59;;;;;;;;;;;19.10;99.90;;;;;;5063264;28;20403;-68
2022/06/19 12:57:36;;;;;;;;;;;19.10;99.90;;;;;;5054446;28;19975;-68
2022/06/19 13:00:16;;;;;;;;;;;18.90;99.90;;;;;;5060184;28;19925;-68
2022/06/19 13:03:01;;;;;;;;;;;18.70;99.90;;;;;;5059697;28;20012;-67
2022/06/19 13:05:35;;;;;;;;;;;18.50;99.90;;;;;;5067273;28;20011;-68
2022/06/19 13:08:07;;;;;;;;;;;18.30;99.90;;;;;;5067712;28;20383;-68
2022/06/19 13:10:42;;;;;;;;;;;18.10;99.90;;;;;;5058289;28;20007;-69
2022/06/19 13:13:19;;;;;;;;;;;18.00;99.90;;;;;;5060522;28;20005;-68
2022/06/19 13:15:55;;;;;;;;;;;18.00;99.90;;;;;;5053825;28;20016;-68
2022/06/19 13:18:30;;;;;;;;;;;18.00;99.90;;;;;;5054025;28;20376;-68
2022/06/19 13:20:59;;;;;;;;;;;17.90;99.90;;;;;;5054524;28;19932;-69
2022/06/19 13:23:30;;;;;;;;;;;17.90;99.90;;;;;;5055504;28;19982;-69
2022/06/19 13:26:04;;;;;;;;;;;17.90;99.90;;;;;;5057997;28;20191;-70
2022/06/19 13:28:35;;;;;;;;;;;17.90;99.90;;;;;;5059045;28;19932;-69
2022/06/19 13:31:06;;;;;;;;;;;17.80;99.90;;;;;;5058628;28;19924;-70
2022/06/19 13:33:41;;;;;;;;;;;17.70;99.90;;;;;;5058808;28;20342;-69
2022/06/19 13:36:13;;;;;;;;;;;17.30;99.90;;;;;;5059036;28;20445;-69
2022/06/19 13:38:45;;;;;;;;;;;17.30;99.90;;;;;;5057269;28;20982;-68
2022/06/19 13:41:17;;;;;;;;;;;17.20;99.90;;;;;;5056986;28;19928;-68
2022/06/19 13:43:49;;;;;;;;;;;17.20;99.90;;;;;;5059888;28;19939;-68
2022/06/19 13:46:22;;;;;;;;;;;17.10;99.90;;;;;;5064229;28;19968;-66
2022/06/19 13:48:54;;;;;;;;;;;17.30;99.90;;;;;;5055105;28;19924;-67
2022/06/19 13:51:27;;;;;;;;;;;17.40;99.90;;;;;;5063813;28;20371;-68
2022/06/19 13:53:57;;;;;;;;;;;17.50;99.90;;;;;;5059491;28;20027;-67
2022/06/19 13:56:27;;;;;;;;;;;17.10;99.90;;;;;;5069754;28;19924;-69
2022/06/19 13:59:05;;;;;;;;;;;17.20;99.90;;;;;;5057345;28;20035;-68
2022/06/19 14:01:38;;;;;;;;;;;17.60;99.90;;;;;;5064868;28;20298;-68
2022/06/19 14:07:18;;;;;;;;;;;17.80;99.90;;;;;;5066299;28;19931;-70
2022/06/19 14:09:47;;;;;;;;;;;17.40;99.90;;;;;;5053675;28;19929;-69
2022/06/19 14:12:16;;;;;;;;;;;17.60;99.90;;;;;;5062738;28;19928;-68
2022/06/19 14:14:46;;;;;;;;;;;17.50;99.90;;;;;;5058143;28;20014;-69
2022/06/19 14:17:23;;;;;;;;;;;17.20;99.90;;;;;;5060396;28;19942;-68
2022/06/19 14:19:51;;;;;;;;;;;17.30;99.90;;;;;;5062602;28;20399;-68
2022/06/19 14:22:22;;;;;;;;;;;17.20;99.90;;;;;;5061399;28;20298;-68
2022/06/19 14:24:52;;;;;;;;;;;17.20;99.90;;;;;;5057576;28;19943;-69
2022/06/19 14:27:27;;;;;;;;;;;17.40;99.90;;;;;;5067446;28;19950;-69
2022/06/19 14:29:55;;;;;;;;;;;17.30;99.90;;;;;;5065101;28;19982;-69
2022/06/19 14:32:25;;;;;;;;;;;17.40;99.90;;;;;;5058962;28;19924;-69
2022/06/19 14:34:54;;;;;;;;;;;17.60;99.90;;;;;;5059835;28;19962;-68
2022/06/19 14:37:48;;;;;;;;;;;17.50;99.90;;;;;;5061524;28;20031;-68
2022/06/19 14:40:35;;;;;;;;;;;17.30;99.90;;;;;;4967492;28;1817106;-70
2022/06/19 14:43:03;;;;;;;;;;;17.10;99.90;;;;;;5053333;28;19924;-67